Eaglescliffe, United Kingdom
Current Conditions -  °F | °C
As of 12:20 PM on Friday 21 Nov 2014 (Local Time) from EGNV Reporting Station
Haze Haze  
Wind Chill: 45°   Ceiling: 2300
Heat Index: 48°   Visibility: 2.8mi
Dew Point: 43°   Wind: 8mph
Humidity: 82%   Direction: 140°SE
Pressure: 30.09"   Gusts: NA
Location:  54.53°N, 1.35°W
Report Text: EGNV 211220Z 14007KT 4500 BR FEW019 BKN023 09/06 Q1019
Loading
Personal Weather Stations






























Interactive Weather Map New forecast layout! Learn more

10-Day Weather Forecast

Advertisements
Track Severe Weather on mobile